Osceola Municipal, IA

12:18 AM CST on December 14, 2017 (GMT -0600)
Osceola Municipal

Weather History for KI75 - March, 2014

Change the Weather History Date:

Wednesday, March 19, 2014

  Actual Average (KCNC) Record (KCNC)
Temperature  
Mean Temperature 36 °F -  
Max Temperature 43 °F 50 °F 78 °F (2012)
Min Temperature 30 °F 29 °F 6 °F (1965)
Degree Days  
Heating Degree Days 28    
Moisture  
Dew Point 27 °F    
Average Humidity 72    
Maximum Humidity 92    
Minimum Humidity 48    
Precipitation  
Precipitation 0.00 in - - ()
Sea Level Pressure  
Sea Level Pressure 29.93 in    
Wind  
Wind Speed 15 mph (WNW)    
Max Wind Speed 22 mph    
Max Gust Speed 31 mph    
Visibility 9 miles    
Events Snow    
Averages and records for this station are not official NWS values.
T = Trace of Precipitation, MM = Missing Value Source: NWS Daily Summary

Daily Weather History Graph

Daily Weather History Graph

Search for Another Location

Airport or City:

Trip Planner

Search our weather history database for the weather conditions in past years. The results will help you decide how hot, cold, wet, or windy it might be!

Date:

Astronomy

Mar. 19, 2014 Rise Set
Actual Time 7:19 AM CDT 7:25 PM CDT
Civil Twilight 6:52 AM CDT 7:53 PM CDT
Nautical Twilight 6:20 AM CDT 8:25 PM CDT
Astronomical Twilight 5:47 AM CDT 8:58 PM CDT
Moon 10:46 PM CDT (3/19) 8:44 AM CDT (3/19)
Length of Visible Light 13h 00m
Length of Day
12h 06m
Waning Gibbous, 91% of the Moon is Illuminated
Mar 19
Waning Gibbous
Mar 23
Last Quarter
Mar 30
New
Apr 7
First Quarter
Apr 15
Full

Hourly Weather History & Observations

Time (CDT) Temp. Windchill Dew Point Humidity Pressure Visibility Wind Dir Wind Speed Gust Speed Precip Events Conditions
12:15 AM 41.5 °F 35.0 °F 37.0 °F 84% 29.61 in 10.0 mi NW 11.5 mph - N/A   Overcast
12:35 AM 41.0 °F 33.9 °F 36.5 °F 84% 29.62 in 10.0 mi NW 12.7 mph 20.7 mph N/A   Overcast
12:55 AM 40.1 °F 32.4 °F 36.1 °F 86% 29.62 in 10.0 mi NW 13.8 mph - N/A   Overcast
1:15 AM 39.6 °F 31.0 °F 36.3 °F 88% 29.63 in 7.0 mi NW 16.1 mph 24.2 mph N/A   Overcast
1:35 AM 38.1 °F 28.4 °F 35.1 °F 89% 29.64 in 7.0 mi NW 18.4 mph 23.0 mph N/A   Overcast
1:55 AM 36.0 °F 26.0 °F 33.3 °F 90% 29.65 in 7.0 mi NW 17.3 mph 23.0 mph N/A   Overcast
2:15 AM 35.1 °F 25.5 °F 32.4 °F 90% 29.66 in 7.0 mi NW 15.0 mph - N/A   Overcast
2:35 AM 34.2 °F 23.6 °F 32.0 °F 92% 29.67 in 7.0 mi NW 17.3 mph - N/A   Overcast
2:55 AM 33.6 °F 23.7 °F 31.6 °F 92% 29.68 in 5.0 mi NW 15.0 mph 23.0 mph N/A   Overcast
3:15 AM 33.1 °F 23.4 °F 31.1 °F 92% 29.68 in 5.0 mi NW 13.8 mph 23.0 mph N/A   Overcast
3:35 AM 32.9 °F 22.4 °F 30.6 °F 91% 29.69 in 5.0 mi NW 16.1 mph 27.6 mph N/A   Overcast
3:55 AM 32.4 °F 21.3 °F 30.0 °F 91% 29.71 in 7.0 mi WNW 17.3 mph 21.9 mph N/A   Overcast
4:15 AM 32.4 °F 20.9 °F 29.8 °F 90% 29.72 in 7.0 mi NW 18.4 mph 27.6 mph N/A   Overcast
4:35 AM 32.5 °F 21.9 °F 30.2 °F 91% 29.74 in 7.0 mi WNW 16.1 mph 20.7 mph N/A   Overcast
4:55 AM 32.4 °F 20.6 °F 29.7 °F 90% 29.76 in 7.0 mi WNW 19.6 mph 26.5 mph N/A   Overcast
5:15 AM 32.0 °F 20.5 °F 28.8 °F 88% 29.77 in 5.0 mi NW 18.4 mph 25.3 mph N/A Snow Light Snow
5:35 AM 31.8 °F 20.6 °F 28.4 °F 87% 29.79 in 5.0 mi NW 17.3 mph 20.7 mph N/A Snow Light Snow
5:55 AM 32.0 °F 20.8 °F 28.4 °F 87% 29.81 in 7.0 mi NW 17.3 mph 23.0 mph N/A   Overcast
6:15 AM 32.0 °F 20.1 °F 28.2 °F 86% 29.82 in 10.0 mi NW 19.6 mph 25.3 mph N/A   Overcast
6:35 AM 31.8 °F 19.9 °F 27.7 °F 85% 29.84 in 10.0 mi NW 19.6 mph 24.2 mph N/A   Overcast
6:55 AM 31.6 °F 19.0 °F 27.3 °F 84% 29.86 in 10.0 mi NW 21.9 mph 31.1 mph N/A   Overcast
7:15 AM 31.3 °F 19.2 °F 26.8 °F 83% 29.87 in 10.0 mi NW 19.6 mph 26.5 mph N/A   Overcast
7:35 AM 31.5 °F 19.1 °F 26.2 °F 81% 29.88 in 10.0 mi NW 20.7 mph 27.6 mph N/A   Overcast
7:55 AM 31.5 °F 19.4 °F 25.9 °F 80% 29.89 in 10.0 mi NW 19.6 mph 27.6 mph N/A   Overcast
8:15 AM 31.8 °F 19.6 °F 26.2 °F 80% 29.89 in 10.0 mi NW 20.7 mph 26.5 mph N/A   Overcast
8:35 AM 32.0 °F 20.1 °F 26.4 °F 80% 29.91 in 10.0 mi NW 19.6 mph 25.3 mph N/A   Overcast
8:55 AM 32.4 °F 20.3 °F 26.4 °F 79% 29.92 in 10.0 mi NW 20.7 mph 26.5 mph N/A   Overcast
9:15 AM 32.4 °F 20.9 °F 26.6 °F 79% 29.94 in 10.0 mi WNW 18.4 mph 26.5 mph N/A   Overcast
9:35 AM 32.4 °F 21.3 °F 26.2 °F 78% 29.94 in 10.0 mi NW 17.3 mph 28.8 mph N/A   Overcast
9:55 AM 32.5 °F 20.8 °F 26.2 °F 78% 29.96 in 10.0 mi NW 19.6 mph - N/A   Overcast
10:15 AM 32.9 °F 23.2 °F 25.7 °F 75% 29.98 in 10.0 mi NW 13.8 mph 23.0 mph N/A   Overcast
10:35 AM 33.6 °F 22.9 °F 25.5 °F 72% 29.98 in 10.0 mi NW 17.3 mph 24.2 mph N/A   Overcast
10:55 AM 34.0 °F 23.0 °F 24.6 °F 69% 29.99 in 10.0 mi NW 18.4 mph 23.0 mph N/A   Overcast
11:15 AM 34.2 °F 24.0 °F 24.6 °F 68% 30.01 in 10.0 mi WNW 16.1 mph 21.9 mph N/A   Overcast
11:35 AM 34.3 °F 23.2 °F 24.6 °F 68% 30.01 in 10.0 mi NW 19.6 mph 24.2 mph N/A   Overcast
11:55 AM 34.3 °F 23.2 °F 25.3 °F 70% 30.01 in 10.0 mi WNW 19.6 mph - N/A   Overcast
12:15 PM 34.0 °F 24.2 °F 25.5 °F 71% 30.02 in 10.0 mi WNW 15.0 mph - N/A   Overcast
12:35 PM 34.3 °F 23.5 °F 25.2 °F 69% 30.02 in 10.0 mi WNW 18.4 mph 24.2 mph N/A   Overcast
12:55 PM 35.6 °F 25.5 °F 24.8 °F 65% 30.03 in 10.0 mi WNW 17.3 mph 25.3 mph N/A   Overcast
1:15 PM 36.1 °F 26.5 °F 25.2 °F 64% 30.04 in 10.0 mi NW 16.1 mph 23.0 mph N/A   Overcast
1:35 PM 36.1 °F 26.2 °F 25.3 °F 65% 30.04 in 10.0 mi WNW 17.3 mph 23.0 mph N/A   Overcast
1:55 PM 37.0 °F 28.1 °F 25.5 °F 63% 30.04 in 10.0 mi WNW 15.0 mph 26.5 mph N/A   Overcast
2:15 PM 37.2 °F 28.3 °F 24.8 °F 61% 30.04 in 10.0 mi WNW 15.0 mph 23.0 mph N/A   Overcast
2:35 PM 39.0 °F 29.6 °F 25.0 °F 57% 30.04 in 10.0 mi NW 18.4 mph 24.2 mph N/A   Overcast
2:55 PM 42.4 °F 34.7 °F 26.1 °F 52% 30.03 in 10.0 mi West 16.1 mph 24.2 mph N/A   Overcast
3:15 PM 40.1 °F 32.0 °F 24.8 °F 54% 30.04 in 10.0 mi WNW 15.0 mph 24.2 mph N/A   Mostly Cloudy
3:35 PM 41.7 °F 34.1 °F 25.7 °F 53% 30.03 in 10.0 mi WNW 15.0 mph 19.6 mph N/A   Mostly Cloudy
3:55 PM 41.0 °F 33.1 °F 25.0 °F 53% 30.04 in 10.0 mi WNW 15.0 mph 19.6 mph N/A   Mostly Cloudy
4:15 PM 41.9 °F 34.0 °F 25.3 °F 52% 30.04 in 10.0 mi NW 16.1 mph - N/A   Mostly Cloudy
4:35 PM 43.3 °F 35.2 °F 24.6 °F 48% 30.04 in 10.0 mi NW 18.4 mph 23.0 mph N/A   Overcast
4:55 PM 41.9 °F 34.0 °F 24.6 °F 50% 30.04 in 10.0 mi West 16.1 mph 24.2 mph N/A   Scattered Clouds
5:15 PM 42.3 °F 35.9 °F 24.6 °F 50% 30.05 in 10.0 mi WNW 11.5 mph - N/A   Mostly Cloudy
5:35 PM 41.9 °F 35.4 °F 24.8 °F 51% 30.05 in 10.0 mi WNW 11.5 mph 20.7 mph N/A   Scattered Clouds
5:55 PM 42.1 °F 36.6 °F 25.3 °F 52% 30.05 in 10.0 mi West 9.2 mph - N/A   Scattered Clouds
6:15 PM 41.9 °F 36.3 °F 25.5 °F 52% 30.05 in 10.0 mi West 9.2 mph - N/A   Scattered Clouds
6:35 PM 42.1 °F 34.9 °F 25.7 °F 52% 30.05 in 10.0 mi West 13.8 mph 19.6 mph N/A   Clear
6:55 PM 42.6 °F 36.3 °F 25.7 °F 51% 30.05 in 10.0 mi West 11.5 mph - N/A   Scattered Clouds
7:15 PM 40.3 °F 35.5 °F 25.7 °F 56% 30.05 in 10.0 mi WSW 6.9 mph - N/A   Scattered Clouds
7:35 PM 38.3 °F 33.9 °F 25.3 °F 60% 30.05 in 10.0 mi WSW 5.8 mph - N/A   Clear
7:55 PM 37.0 °F 32.4 °F 24.8 °F 61% 30.05 in 10.0 mi SW 5.8 mph - N/A   Clear
8:15 PM 37.2 °F 33.6 °F 25.0 °F 61% 30.04 in 10.0 mi SSW 4.6 mph - N/A   Clear
8:35 PM 34.7 °F 28.8 °F 24.8 °F 67% 30.05 in 10.0 mi SW 6.9 mph - N/A   Clear
8:55 PM 32.9 °F 26.7 °F 24.4 °F 71% 30.05 in 10.0 mi SW 6.9 mph - N/A   Clear
9:15 PM 32.9 °F 25.9 °F 24.8 °F 72% 30.06 in 10.0 mi SW 8.1 mph - N/A   Clear
9:35 PM 32.2 °F 26.7 °F 23.9 °F 72% 30.05 in 10.0 mi SW 5.8 mph - N/A   Clear
9:55 PM 32.0 °F 27.5 °F 23.9 °F 72% 30.05 in 10.0 mi SW 4.6 mph - N/A   Scattered Clouds
10:15 PM 30.2 °F 23.4 °F 23.2 °F 75% 30.05 in 10.0 mi SSW 6.9 mph - N/A   Scattered Clouds
10:35 PM 31.8 °F 26.2 °F 23.9 °F 73% 30.05 in 10.0 mi SW 5.8 mph - N/A   Clear
10:55 PM 32.0 °F 25.6 °F 24.6 °F 74% 30.04 in 10.0 mi SSW 6.9 mph - N/A   Scattered Clouds
11:15 PM 32.2 °F 25.0 °F 24.6 °F 74% 30.04 in 10.0 mi SSW 8.1 mph - N/A   Scattered Clouds
11:35 PM 32.2 °F 25.0 °F 24.6 °F 74% 30.05 in 10.0 mi SSW 8.1 mph - N/A   Clear
11:55 PM 31.5 °F 24.9 °F 24.1 °F 74% 30.04 in 10.0 mi SSW 6.9 mph - N/A   Clear